KBLH

Blythe Airport

Blythe, California, USA
METAR KBLH 280052Z AUTO 14007KT 10SM CLR 33/04 A2971 RMK AO2 SLP057 T03330039 $
Observed Flight Rules
May-28 @ 00:52 UTC (25 minutes ago) Visual Flight Rules
Wind Visibility Clouds
140° at 7 knots 10 miles
  • Clear skies
Temperatures Readings
Current 33°C / 91°F
Dewpoint 4°C / 39°F
Humidity 16%
Altimeter 29.71" Hg
Pressure 1005.7 hPa
Elevation 119
METAR KBLH 280052Z AUTO 14007KT 10SM CLR 33/04 A2971 RMK AO2 SLP057 T03330039 $
Observed Flight Rules
May-28 @ 00:52 UTC
(25 minutes ago)
VFR
Wind Visibility
140° at 7 knots 10 miles
Clouds
  • Clear skies
Temperature Dewpoint
33°C / 91°F 4°C / 39°F
Humidity Altimeter Pressure
16% 29.71" Hg 1005.7 hPa